Time;durP1;ratioP1;P1;durP2;ratioP2;P2;SDS_P1;SDS_P2;PMS_P1;PMS_P2;Temp;Humidity;BMP_temperature;BMP_pressure;BME280_temperature;BME280_humidity;BME280_pressure;Samples;Min_cycle;Max_cycle;Signal;HPM_P1;HPM_P2
2024/03/30 00:00:51;;;;;;;2.08;1.10;;;;;;;9.59;100.00;99481.31;5004009;28;20042;-74
2024/03/30 00:03:18;;;;;;;3.03;1.30;;;;;;;9.60;100.00;99482.09;5007321;28;21677;-73
2024/03/30 00:05:44;;;;;;;3.05;1.40;;;;;;;9.65;100.00;99472.03;5000949;28;20049;-74
2024/03/30 00:08:09;;;;;;;4.35;1.50;;;;;;;9.59;100.00;99477.91;5022227;28;20041;-73
2024/03/30 00:10:36;;;;;;;3.50;1.67;;;;;;;9.70;100.00;99467.91;5026122;28;20088;-73
2024/03/30 00:13:05;;;;;;;2.58;1.30;;;;;;;9.55;100.00;99449.81;5009590;28;20496;-72
2024/03/30 00:15:31;;;;;;;2.08;1.38;;;;;;;9.51;100.00;99443.41;5027166;28;20109;-73
2024/03/30 00:18:00;;;;;;;5.15;1.30;;;;;;;9.50;100.00;99444.38;5008240;28;20037;-73
2024/03/30 00:20:29;;;;;;;1.90;1.10;;;;;;;9.50;100.00;99434.03;5008170;28;20029;-73
2024/03/30 00:22:55;;;;;;;3.30;1.55;;;;;;;9.51;100.00;99438.22;5005942;28;20038;-74
2024/03/30 00:25:22;;;;;;;2.70;1.40;;;;;;;9.51;100.00;99435.66;5024010;28;20034;-73
2024/03/30 00:27:47;;;;;;;1.60;1.05;;;;;;;9.49;100.00;99432.44;5007958;28;20037;-73
2024/03/30 00:30:15;;;;;;;3.20;1.50;;;;;;;9.49;100.00;99429.84;5024108;28;20056;-74
2024/03/30 00:32:41;;;;;;;2.28;1.27;;;;;;;9.49;100.00;99421.25;5008233;28;20037;-74
2024/03/30 00:35:06;;;;;;;3.75;1.80;;;;;;;9.48;100.00;99417.88;5008079;28;20017;-73
2024/03/30 00:37:32;;;;;;;2.08;1.33;;;;;;;9.47;100.00;99415.47;5026099;28;20025;-73
2024/03/30 00:39:58;;;;;;;2.72;1.83;;;;;;;9.52;100.00;99411.34;5036048;28;20601;-72
2024/03/30 00:42:23;;;;;;;4.20;2.00;;;;;;;9.55;100.00;99400.66;5018206;28;20034;-73
2024/03/30 00:44:49;;;;;;;6.10;1.67;;;;;;;9.47;100.00;99402.53;5009103;28;20711;-73
2024/03/30 00:47:14;;;;;;;3.72;1.95;;;;;;;9.51;100.00;99403.78;5006996;28;20045;-73
2024/03/30 00:49:40;;;;;;;1.75;1.52;;;;;;;9.41;100.00;99396.31;5006067;28;20029;-73
2024/03/30 00:52:05;;;;;;;2.42;1.42;;;;;;;9.39;100.00;99403.44;5006736;28;20056;-73
2024/03/30 00:54:31;;;;;;;2.22;1.70;;;;;;;9.39;100.00;99381.97;5005585;28;20439;-73
2024/03/30 00:56:56;;;;;;;4.45;1.80;;;;;;;9.41;100.00;99377.41;5004363;28;20477;-74
2024/03/30 00:59:22;;;;;;;7.75;2.25;;;;;;;9.42;100.00;99366.88;5006785;28;20688;-73
2024/03/30 01:01:51;;;;;;;3.83;1.92;;;;;;;9.41;100.00;99370.44;5018697;28;20062;-73
2024/03/30 01:04:16;;;;;;;3.50;2.00;;;;;;;9.47;100.00;99364.50;5006588;28;20045;-73
2024/03/30 01:06:43;;;;;;;8.13;2.75;;;;;;;9.49;100.00;99362.56;5020813;28;20050;-73
2024/03/30 01:09:09;;;;;;;3.45;2.03;;;;;;;9.53;100.00;99352.63;5021974;28;20091;-73
2024/03/30 01:11:36;;;;;;;3.10;2.03;;;;;;;9.42;100.00;99347.94;5022863;28;20053;-74
2024/03/30 01:14:03;;;;;;;3.42;2.10;;;;;;;9.45;100.00;99347.59;5011814;28;20503;-73
2024/03/30 01:16:29;;;;;;;5.15;2.40;;;;;;;9.42;100.00;99340.19;5009167;28;20034;-73
2024/03/30 01:18:55;;;;;;;2.65;2.05;;;;;;;9.45;100.00;99342.41;5014684;28;20030;-73
2024/03/30 01:21:21;;;;;;;3.47;2.35;;;;;;;9.45;100.00;99345.00;5005706;28;20076;-73
2024/03/30 01:23:47;;;;;;;3.90;2.30;;;;;;;9.38;100.00;99331.19;5009408;28;20076;-73
2024/03/30 01:26:13;;;;;;;4.40;2.10;;;;;;;9.34;100.00;99334.16;5023805;28;20119;-73
2024/03/30 01:28:42;;;;;;;4.10;2.60;;;;;;;9.49;100.00;99333.28;5006544;28;20038;-73
2024/03/30 01:31:08;;;;;;;3.67;2.72;;;;;;;9.50;100.00;99330.53;5023359;28;20057;-74
2024/03/30 01:33:34;;;;;;;4.57;2.75;;;;;;;9.54;100.00;99326.56;5027542;28;20030;-74
2024/03/30 01:35:59;;;;;;;4.80;3.53;;;;;;;9.50;100.00;99322.75;5028560;28;20065;-73
2024/03/30 01:38:24;;;;;;;6.78;4.18;;;;;;;9.49;100.00;99317.75;4989063;28;20037;-73
2024/03/30 01:40:50;;;;;;;7.70;4.50;;;;;;;9.46;100.00;99316.34;5005520;28;20038;-73
2024/03/30 01:43:15;;;;;;;9.52;4.65;;;;;;;9.42;100.00;99309.94;5026047;28;20040;-72
2024/03/30 01:45:42;;;;;;;7.28;5.18;;;;;;;9.39;100.00;99306.94;5007527;28;20046;-73
2024/03/30 01:48:11;;;;;;;8.88;5.65;;;;;;;9.41;100.00;99305.75;5036132;28;20433;-74
2024/03/30 01:50:40;;;;;;;12.18;6.68;;;;;;;9.46;100.00;99308.59;5008582;28;20071;-74
2024/03/30 01:53:08;;;;;;;11.95;6.97;;;;;;;9.48;100.00;99305.81;5004840;28;20038;-73
2024/03/30 01:55:35;;;;;;;11.07;7.43;;;;;;;9.41;100.00;99297.19;5025048;28;20046;-73
2024/03/30 01:58:02;;;;;;;12.48;8.10;;;;;;;9.31;100.00;99293.13;5028074;28;20120;-73
2024/03/30 02:00:29;;;;;;;13.27;8.20;;;;;;;9.33;100.00;99275.63;5008295;28;20034;-74
2024/03/30 02:03:02;;;;;;;14.75;8.55;;;;;;;9.27;100.00;99284.13;5007270;28;20022;-73
2024/03/30 02:05:30;;;;;;;17.02;10.07;;;;;;;9.28;100.00;99275.38;5033507;28;20425;-73
2024/03/30 02:08:00;;;;;;;17.98;10.30;;;;;;;9.27;100.00;99284.13;5021870;28;20092;-73
2024/03/30 02:10:27;;;;;;;18.48;11.05;;;;;;;9.27;100.00;99281.56;5023009;28;20103;-73
2024/03/30 02:12:53;;;;;;;17.20;11.38;;;;;;;9.24;100.00;99281.13;5009144;28;20041;-74
2024/03/30 02:15:19;;;;;;;24.38;12.65;;;;;;;9.19;100.00;99283.44;5021209;28;20038;-73
2024/03/30 02:17:45;;;;;;;21.17;12.52;;;;;;;9.22;100.00;99277.91;5005179;28;20509;-73
2024/03/30 02:20:10;;;;;;;21.42;13.63;;;;;;;9.23;100.00;99271.75;5009079;28;20399;-73
2024/03/30 02:22:35;;;;;;;20.23;13.55;;;;;;;9.10;100.00;99270.63;5008226;28;20497;-73
2024/03/30 02:25:01;;;;;;;22.02;13.75;;;;;;;9.05;100.00;99269.59;5023555;28;20128;-73
2024/03/30 02:27:26;;;;;;;22.70;14.60;;;;;;;9.05;100.00;99262.63;5007266;28;20432;-74
2024/03/30 02:29:58;;;;;;;21.02;13.57;;;;;;;9.10;100.00;99262.09;5004910;28;20448;-73
2024/03/30 02:32:23;;;;;;;23.05;14.32;;;;;;;9.01;100.00;99263.97;5009248;28;20493;-73
2024/03/30 02:34:50;;;;;;;24.23;14.32;;;;;;;8.99;100.00;99247.84;5009891;28;20188;-73
2024/03/30 02:37:16;;;;;;;25.38;14.52;;;;;;;8.91;100.00;99250.53;4993237;28;20042;-74
2024/03/30 02:39:41;;;;;;;23.33;14.77;;;;;;;8.91;100.00;99246.19;5034671;28;20477;-74
2024/03/30 02:42:07;;;;;;;22.58;13.90;;;;;;;8.85;100.00;99253.84;5007054;28;20053;-73
2024/03/30 02:44:33;;;;;;;21.95;13.90;;;;;;;8.83;100.00;99248.84;5025810;28;20481;-74
2024/03/30 02:46:59;;;;;;;26.15;15.23;;;;;;;8.82;100.00;99247.28;5022873;28;20045;-73
2024/03/30 02:49:24;;;;;;;25.10;14.50;;;;;;;8.90;100.00;99244.56;5007290;28;20632;-73
2024/03/30 02:51:50;;;;;;;22.00;14.45;;;;;;;8.88;100.00;99236.19;5006428;28;20057;-74
2024/03/30 02:54:15;;;;;;;23.58;14.30;;;;;;;8.95;100.00;99237.06;5022569;28;20049;-73
2024/03/30 02:56:40;;;;;;;24.98;14.63;;;;;;;8.83;100.00;99238.50;5006368;28;20045;-74
2024/03/30 02:59:06;;;;;;;24.85;14.63;;;;;;;8.90;100.00;99243.78;5022659;28;20075;-74
2024/03/30 03:01:31;;;;;;;23.33;14.65;;;;;;;8.84;100.00;99242.72;5004917;28;20030;-74
2024/03/30 03:03:57;;;;;;;22.67;13.63;;;;;;;8.93;100.00;99238.25;5006395;28;20605;-73
2024/03/30 03:06:22;;;;;;;20.80;13.80;;;;;;;8.89;100.00;99231.81;5006625;28;20033;-73
2024/03/30 03:08:48;;;;;;;21.30;13.57;;;;;;;8.81;100.00;99227.56;5008367;28;20036;-74
2024/03/30 03:11:13;;;;;;;22.05;13.75;;;;;;;8.80;100.00;99223.41;5007811;28;20042;-74
2024/03/30 03:13:39;;;;;;;20.52;13.48;;;;;;;8.75;100.00;99229.09;5009833;28;20635;-72
2024/03/30 03:16:05;;;;;;;23.00;15.25;;;;;;;8.71;100.00;99227.06;5004281;28;21948;-74
2024/03/30 03:18:30;;;;;;;22.80;13.35;;;;;;;8.66;100.00;99221.63;5007828;28;20096;-74
2024/03/30 03:20:56;;;;;;;24.40;13.77;;;;;;;8.67;100.00;99218.88;5002468;28;20652;-74
2024/03/30 03:23:21;;;;;;;22.58;13.23;;;;;;;8.61;100.00;99217.03;5007665;28;20033;-73
2024/03/30 03:25:47;;;;;;;16.88;11.15;;;;;;;8.60;100.00;99228.31;5006182;28;20042;-73
2024/03/30 03:28:12;;;;;;;20.10;13.02;;;;;;;8.65;100.00;99236.34;5005178;28;20045;-73
2024/03/30 03:30:38;;;;;;;19.90;12.45;;;;;;;8.69;100.00;99224.66;5021891;28;20050;-73
2024/03/30 03:33:04;;;;;;;19.35;12.55;;;;;;;8.72;100.00;99218.31;5007935;28;20037;-73
2024/03/30 03:35:29;;;;;;;17.33;11.98;;;;;;;8.70;100.00;99223.69;5021592;28;21687;-73
2024/03/30 03:37:55;;;;;;;18.00;11.07;;;;;;;8.68;100.00;99217.91;5007624;28;20587;-74
2024/03/30 03:40:20;;;;;;;18.65;10.60;;;;;;;8.59;100.00;99221.56;5006697;28;20056;-73
2024/03/30 03:42:46;;;;;;;19.30;10.43;;;;;;;8.56;100.00;99227.09;5006671;28;20040;-73
2024/03/30 03:45:11;;;;;;;15.82;10.70;;;;;;;8.53;100.00;99219.69;5007370;28;20469;-74
2024/03/30 03:47:37;;;;;;;16.83;10.73;;;;;;;8.53;100.00;99220.50;5030542;28;20689;-74
2024/03/30 03:50:02;;;;;;;21.20;12.90;;;;;;;8.60;100.00;99215.41;5006726;28;20033;-74
2024/03/30 03:52:28;;;;;;;19.23;11.23;;;;;;;8.57;100.00;99205.47;5035268;28;20117;-73
2024/03/30 03:54:53;;;;;;;17.70;10.80;;;;;;;8.51;100.00;99209.56;5006429;28;20401;-73
2024/03/30 03:57:21;;;;;;;19.20;11.13;;;;;;;8.50;100.00;99212.31;4984850;28;20065;-73
2024/03/30 03:59:50;;;;;;;17.55;9.80;;;;;;;8.48;100.00;99215.09;5005336;28;20022;-74
2024/03/30 04:02:15;;;;;;;20.83;10.02;;;;;;;8.49;100.00;99214.09;5002343;28;20030;-74
2024/03/30 04:04:41;;;;;;;15.25;9.90;;;;;;;8.61;100.00;99191.19;5023372;28;20412;-74
2024/03/30 04:07:06;;;;;;;15.90;9.60;;;;;;;8.54;100.00;99195.47;5005747;28;20042;-74
2024/03/30 04:09:31;;;;;;;14.98;9.30;;;;;;;8.48;100.00;99203.97;5019523;28;20076;-73
2024/03/30 04:11:57;;;;;;;15.23;8.35;;;;;;;8.45;100.00;99202.50;5020101;28;20508;-74
2024/03/30 04:14:22;;;;;;;13.93;8.77;;;;;;;8.45;100.00;99202.50;5005055;28;20397;-74
2024/03/30 04:16:48;;;;;;;15.35;8.90;;;;;;;8.48;100.00;99206.53;5005754;28;20041;-74
2024/03/30 04:19:17;;;;;;;12.63;8.55;;;;;;;8.45;100.00;99199.94;5021261;28;20038;-74
2024/03/30 04:21:44;;;;;;;15.43;8.45;;;;;;;8.45;100.00;99183.63;5002778;28;20031;-74
2024/03/30 04:24:10;;;;;;;13.30;8.15;;;;;;;8.45;100.00;99194.75;5018971;28;20034;-74
2024/03/30 04:26:35;;;;;;;13.63;8.50;;;;;;;8.45;100.00;99199.94;5020052;28;20033;-74
2024/03/30 04:29:01;;;;;;;13.32;8.52;;;;;;;8.43;100.00;99188.97;5022534;28;20026;-73
2024/03/30 04:31:26;;;;;;;15.13;8.50;;;;;;;8.41;100.00;99182.38;5020832;28;20050;-73
2024/03/30 04:33:51;;;;;;;15.00;8.93;;;;;;;8.42;100.00;99186.56;5005551;28;20044;-74
2024/03/30 04:36:17;;;;;;;14.48;8.10;;;;;;;8.38;100.00;99184.34;5005674;28;20034;-73
2024/03/30 04:38:42;;;;;;;12.45;7.88;;;;;;;8.38;100.00;99179.19;5006836;28;20480;-73
2024/03/30 04:41:08;;;;;;;10.80;7.63;;;;;;;8.37;100.00;99177.56;5002109;28;20426;-73
2024/03/30 04:43:35;;;;;;;14.90;7.88;;;;;;;8.37;100.00;99172.41;5000514;28;20093;-73
2024/03/30 04:46:02;;;;;;;11.68;7.93;;;;;;;8.36;100.00;99170.81;5021166;28;20092;-74
2024/03/30 04:48:28;;;;;;;16.15;8.05;;;;;;;8.37;100.00;99163.84;5007938;28;20029;-74
2024/03/30 04:50:55;;;;;;;12.48;6.60;;;;;;;8.28;100.00;99164.94;5018240;28;20074;-74
2024/03/30 04:53:25;;;;;;;11.95;7.68;;;;;;;8.24;100.00;99167.06;5022256;28;20044;-74
2024/03/30 04:55:55;;;;;;;11.75;7.20;;;;;;;8.21;100.00;99167.44;5008775;28;20517;-74
2024/03/30 04:58:23;;;;;;;12.00;6.82;;;;;;;8.17;100.00;99159.25;5013791;28;20029;-74
2024/03/30 05:00:50;;;;;;;9.95;6.75;;;;;;;8.17;100.00;99155.88;5019870;28;20049;-73
2024/03/30 05:03:16;;;;;;;11.15;6.85;;;;;;;8.17;100.00;99159.25;5009732;28;20081;-73
2024/03/30 05:05:43;;;;;;;12.30;7.72;;;;;;;8.19;100.00;99156.47;5025366;28;20045;-73
2024/03/30 05:08:09;;;;;;;11.73;7.65;;;;;;;8.21;100.00;99162.25;5028303;28;20026;-74
2024/03/30 05:10:35;;;;;;;12.13;7.53;;;;;;;8.18;100.00;99158.28;5023796;28;20038;-73
2024/03/30 05:13:01;;;;;;;11.63;7.47;;;;;;;8.22;100.00;99152.75;5010004;28;20044;-74
2024/03/30 05:15:26;;;;;;;12.95;7.80;;;;;;;8.27;100.00;99145.25;5026703;28;20030;-73
2024/03/30 05:17:51;;;;;;;10.40;6.80;;;;;;;8.23;100.00;99141.44;5009642;28;20018;-73
2024/03/30 05:23:01;;;;;;;13.32;8.32;;;;;;;8.15;100.00;99140.53;5007239;28;20033;-73
2024/03/30 05:25:26;;;;;;;12.23;7.95;;;;;;;8.18;100.00;99139.41;5007236;28;20357;-73
2024/03/30 05:27:52;;;;;;;13.43;8.60;;;;;;;8.24;100.00;99133.50;5009315;28;20041;-74
2024/03/30 05:30:18;;;;;;;20.13;8.98;;;;;;;8.19;100.00;99138.41;5012495;28;20601;-74
2024/03/30 05:32:46;;;;;;;13.13;8.40;;;;;;;8.14;100.00;99138.16;5008474;28;20064;-73
2024/03/30 05:35:11;;;;;;;13.30;8.50;;;;;;;8.14;100.00;99146.72;5021666;28;20030;-73
2024/03/30 05:37:38;;;;;;;13.40;8.15;;;;;;;8.24;100.00;99143.84;5035748;28;20877;-73
2024/03/30 05:40:04;;;;;;;18.02;9.60;;;;;;;8.22;100.00;99142.44;5025495;28;20064;-74
2024/03/30 05:42:30;;;;;;;12.88;8.13;;;;;;;8.18;100.00;99147.16;5005758;28;20066;-73
2024/03/30 05:44:56;;;;;;;14.45;9.63;;;;;;;8.25;100.00;99142.88;5022205;28;20449;-74
2024/03/30 05:47:21;;;;;;;15.25;9.13;;;;;;;8.38;100.00;99142.19;5004812;28;20100;-73
2024/03/30 05:49:47;;;;;;;13.90;8.18;;;;;;;8.50;100.00;99145.94;5037560;28;20046;-74
2024/03/30 05:52:12;;;;;;;16.63;9.98;;;;;;;8.36;100.00;99147.56;5024930;28;20038;-74
2024/03/30 05:54:37;;;;;;;15.80;9.70;;;;;;;8.43;100.00;99150.25;5006441;28;20401;-74
2024/03/30 05:57:03;;;;;;;17.30;10.45;;;;;;;8.52;100.00;99158.69;5035080;28;20619;-74
2024/03/30 05:59:28;;;;;;;17.17;10.48;;;;;;;8.56;100.00;99145.22;5027456;28;20358;-74
2024/03/30 06:01:54;;;;;;;19.45;10.25;;;;;;;8.58;100.00;99145.03;5006248;28;20042;-73
2024/03/30 06:04:19;;;;;;;16.23;10.77;;;;;;;8.55;100.00;99133.28;5008318;28;20451;-73
2024/03/30 06:06:45;;;;;;;17.05;11.38;;;;;;;8.49;100.00;99133.22;5002384;28;20600;-74
2024/03/30 06:09:10;;;;;;;21.13;11.50;;;;;;;8.70;100.00;99141.00;5008070;28;20096;-74
2024/03/30 06:11:36;;;;;;;23.17;11.45;;;;;;;8.72;100.00;99141.59;5021421;28;20034;-73
2024/03/30 06:14:01;;;;;;;19.00;11.63;;;;;;;8.75;100.00;99148.97;5007229;28;20420;-73
2024/03/30 06:16:26;;;;;;;20.63;11.77;;;;;;;8.77;100.00;99138.47;5031975;28;20509;-72
2024/03/30 06:18:52;;;;;;;25.25;11.35;;;;;;;8.76;100.00;99139.47;5024050;28;20033;-73
2024/03/30 06:21:17;;;;;;;22.65;12.10;;;;;;;8.81;100.00;99141.47;5003913;28;20041;-73
2024/03/30 06:23:43;;;;;;;18.30;11.95;;;;;;;8.86;100.00;99149.50;5024197;28;20042;-73
2024/03/30 06:26:09;;;;;;;18.92;11.82;;;;;;;8.89;100.00;99149.91;5006432;28;20069;-73
2024/03/30 06:28:35;;;;;;;20.52;12.20;;;;;;;8.75;100.00;99151.56;5021892;28;20040;-74
2024/03/30 06:31:01;;;;;;;24.42;12.40;;;;;;;8.89;100.00;99154.28;5007929;28;20045;-73
2024/03/30 06:33:27;;;;;;;23.88;12.50;;;;;;;8.87;100.00;99154.47;5006514;28;20041;-73
2024/03/30 06:35:55;;;;;;;23.02;13.30;;;;;;;8.96;100.00;99150.75;5006218;28;20479;-74
2024/03/30 06:38:21;;;;;;;22.52;12.63;;;;;;;8.97;100.00;99167.09;5008460;28;20041;-73
2024/03/30 06:43:43;;;;;;;23.85;12.35;;;;;;;9.15;100.00;99161.47;5034217;28;20951;-74
2024/03/30 06:46:09;;;;;;;23.80;12.25;;;;;;;9.12;100.00;99162.66;5005654;28;20156;-74
2024/03/30 06:48:34;;;;;;;22.13;12.88;;;;;;;9.26;100.00;99175.69;5006797;28;20489;-73
2024/03/30 06:51:00;;;;;;;22.90;12.98;;;;;;;9.23;100.00;99187.22;5006137;28;20041;-74
2024/03/30 06:53:25;;;;;;;24.83;11.77;;;;;;;9.27;100.00;99185.84;5007718;28;20025;-76
2024/03/30 06:55:51;;;;;;;23.45;12.60;;;;;;;9.18;100.00;99148.16;5001508;28;20041;-73
2024/03/30 06:58:17;;;;;;;27.38;14.02;;;;;;;9.31;100.00;99166.38;5007977;28;20037;-74
2024/03/30 07:00:43;;;;;;;27.08;14.55;;;;;;;9.36;100.00;99173.56;5019774;28;20052;-74
2024/03/30 07:03:08;;;;;;;20.80;12.38;;;;;;;9.38;100.00;99171.63;5004931;28;20705;-74
2024/03/30 07:05:34;;;;;;;27.98;14.43;;;;;;;9.31;100.00;99168.97;5003865;28;20053;-74
2024/03/30 07:08:01;;;;;;;28.17;14.90;;;;;;;9.28;100.00;99168.53;5005185;28;20042;-74
2024/03/30 07:10:26;;;;;;;27.38;15.20;;;;;;;9.44;100.00;99163.09;5022728;28;20046;-74
2024/03/30 07:12:54;;;;;;;25.25;13.88;;;;;;;9.40;100.00;99155.88;5006153;28;20033;-73
2024/03/30 07:15:21;;;;;;;26.33;15.52;;;;;;;9.54;100.00;99165.34;5006439;28;20301;-73
2024/03/30 07:17:46;;;;;;;24.75;14.40;;;;;;;9.44;100.00;99173.44;5021211;28;20476;-74
2024/03/30 07:20:12;;;;;;;24.27;13.20;;;;;;;9.43;100.00;99192.53;5005062;28;20128;-74
2024/03/30 07:22:37;;;;;;;23.63;12.40;;;;;;;9.46;100.00;99179.22;5022697;28;20038;-74
2024/03/30 07:25:04;;;;;;;22.08;13.48;;;;;;;9.47;100.00;99146.38;5020537;28;20041;-74
2024/03/30 07:27:29;;;;;;;21.63;13.50;;;;;;;9.46;100.00;99143.00;5020358;28;20103;-74
2024/03/30 07:29:55;;;;;;;24.83;12.50;;;;;;;9.57;100.00;99149.47;5006988;28;20239;-74
2024/03/30 07:32:21;;;;;;;23.17;13.38;;;;;;;9.59;100.00;99155.25;5006203;28;20038;-74
2024/03/30 07:34:47;;;;;;;26.73;13.90;;;;;;;9.63;100.00;99153.88;5004521;28;20029;-73
2024/03/30 07:37:13;;;;;;;25.38;14.57;;;;;;;9.69;100.00;99152.31;5020549;28;20034;-74
2024/03/30 07:39:42;;;;;;;27.48;14.63;;;;;;;9.64;100.00;99154.66;5003144;28;20095;-73
2024/03/30 07:42:08;;;;;;;28.00;14.25;;;;;;;9.59;100.00;99155.25;5018122;28;20026;-73
2024/03/30 07:44:37;;;;;;;27.20;13.77;;;;;;;9.63;100.00;99163.44;5016472;28;20037;-73
2024/03/30 07:47:06;;;;;;;25.13;13.00;;;;;;;9.67;100.00;99165.44;4997400;28;20034;-73
2024/03/30 07:49:32;;;;;;;29.13;13.40;;;;;;;9.81;100.00;99178.44;5018447;28;20038;-73
2024/03/30 07:51:58;;;;;;;27.67;13.73;;;;;;;9.77;100.00;99175.44;5002964;28;20037;-74
2024/03/30 07:54:24;;;;;;;25.35;12.30;;;;;;;9.79;100.00;99170.09;5003787;28;20506;-74
2024/03/30 07:57:01;;;;;;;22.80;12.88;;;;;;;9.84;100.00;99162.56;5020027;28;20057;-74
2024/03/30 07:59:27;;;;;;;23.73;12.88;;;;;;;9.85;100.00;99153.78;5005478;28;20128;-74
2024/03/30 08:01:53;;;;;;;27.23;12.93;;;;;;;9.88;100.00;99156.00;5001818;28;20505;-74
2024/03/30 08:04:20;;;;;;;27.70;12.90;;;;;;;9.94;100.00;99139.69;5007222;28;20038;-74
2024/03/30 08:06:47;;;;;;;27.52;12.13;;;;;;;10.00;100.00;99131.19;5003311;28;20030;-74
2024/03/30 08:09:14;;;;;;;29.17;12.95;;;;;;;10.21;100.00;99134.63;5021076;28;20046;-74
2024/03/30 08:11:40;;;;;;;31.33;12.45;;;;;;;10.36;100.00;99139.69;5020972;28;20042;-73
2024/03/30 08:14:05;;;;;;;27.77;11.13;;;;;;;10.55;100.00;99146.72;5006626;28;20036;-74
2024/03/30 08:16:32;;;;;;;24.90;11.80;;;;;;;10.67;100.00;99136.59;5003806;28;20030;-74
2024/03/30 08:18:58;;;;;;;22.70;11.38;;;;;;;10.92;100.00;99121.25;5025081;28;20076;-73
2024/03/30 08:21:24;;;;;;;18.25;9.80;;;;;;;11.11;100.00;99117.06;5020257;28;20516;-73
2024/03/30 08:23:52;;;;;;;20.90;10.05;;;;;;;11.52;100.00;99117.81;5020886;28;20037;-72
2024/03/30 08:26:18;;;;;;;16.88;8.63;;;;;;;11.80;100.00;99109.78;5004948;28;20048;-73
2024/03/30 08:28:46;;;;;;;14.73;7.88;;;;;;;11.88;100.00;99104.34;5009017;28;20041;-73
2024/03/30 08:31:13;;;;;;;17.15;9.70;;;;;;;11.74;100.00;99101.00;5026217;28;20203;-73
2024/03/30 08:33:38;;;;;;;18.95;8.48;;;;;;;11.65;100.00;99099.63;5009780;28;20038;-73
2024/03/30 08:36:04;;;;;;;19.92;8.80;;;;;;;11.64;100.00;99103.22;5008094;28;20056;-73
2024/03/30 08:38:29;;;;;;;19.42;7.55;;;;;;;11.53;100.00;99103.84;5009796;28;20454;-73
2024/03/30 08:40:55;;;;;;;20.35;7.53;;;;;;;11.49;100.00;99100.88;5010508;28;20049;-73
2024/03/30 08:43:25;;;;;;;13.88;8.05;;;;;;;11.55;100.00;99105.25;4999857;28;20065;-73
2024/03/30 08:45:50;;;;;;;17.15;7.53;;;;;;;11.69;100.00;99104.19;5010473;28;20091;-74
2024/03/30 08:48:18;;;;;;;12.68;7.47;;;;;;;11.77;100.00;99103.19;5010837;28;20124;-74
2024/03/30 08:50:44;;;;;;;17.15;6.88;;;;;;;11.73;100.00;99098.59;5006431;28;20042;-74
2024/03/30 08:53:10;;;;;;;13.32;6.45;;;;;;;11.85;100.00;99102.16;5002365;28;20037;-74
2024/03/30 08:55:37;;;;;;;22.90;6.53;;;;;;;11.92;100.00;99107.34;5003538;28;20508;-74
2024/03/30 08:58:04;;;;;;;12.18;5.22;;;;;;;11.83;100.00;99106.78;5008592;28;20029;-74
2024/03/30 09:00:30;;;;;;;11.02;5.40;;;;;;;11.92;100.00;99112.53;5009457;28;20161;-74
2024/03/30 09:02:55;;;;;;;13.13;5.15;;;;;;;11.97;100.00;99110.13;5020554;28;20526;-74
2024/03/30 09:05:26;;;;;;;12.18;4.72;;;;;;;12.18;100.00;99116.84;5007244;28;20037;-73
2024/03/30 09:07:52;;;;;;;7.53;3.85;;;;;;;12.40;100.00;99114.75;5001828;28;20176;-74
2024/03/30 09:10:19;;;;;;;14.68;4.03;;;;;;;12.58;100.00;99124.41;5009511;28;20037;-73
2024/03/30 09:12:44;;;;;;;12.95;4.03;;;;;;;12.60;100.00;99123.22;5023147;28;20042;-74
2024/03/30 09:15:10;;;;;;;11.85;3.40;;;;;;;12.45;100.00;99123.50;5024600;28;20049;-73
2024/03/30 09:17:36;;;;;;;16.30;4.25;;;;;;;12.39;100.00;99118.31;5021998;28;20037;-75
2024/03/30 09:20:01;;;;;;;9.63;4.28;;;;;;;12.41;100.00;99122.34;5024038;28;20037;-74
2024/03/30 09:22:26;;;;;;;12.80;4.05;;;;;;;12.52;100.00;99131.25;5006333;28;20034;-74
2024/03/30 09:24:54;;;;;;;8.05;3.58;;;;;;;12.53;100.00;99124.28;5006831;28;20488;-73
2024/03/30 09:27:20;;;;;;;9.50;4.00;;;;;;;12.75;100.00;99127.31;5007992;28;20121;-74
2024/03/30 09:29:46;;;;;;;9.57;4.65;;;;;;;12.88;100.00;99126.44;5007910;28;20060;-74
2024/03/30 09:32:11;;;;;;;13.93;3.38;;;;;;;13.16;100.00;99129.41;5010265;28;20556;-74
2024/03/30 09:34:37;;;;;;;11.38;2.92;;;;;;;13.28;100.00;99126.09;5022550;28;20048;-74
2024/03/30 09:37:07;;;;;;;13.50;2.95;;;;;;;13.35;100.00;99122.44;5011969;28;20049;-74
2024/03/30 09:39:36;;;;;;;17.38;3.60;;;;;;;13.44;100.00;99123.78;5021843;28;20396;-73
2024/03/30 09:42:06;;;;;;;10.75;2.88;;;;;;;13.50;100.00;99123.94;5039522;28;20058;-74
2024/03/30 09:44:34;;;;;;;19.13;2.63;;;;;;;13.49;100.00;99125.75;5022295;28;20038;-74
2024/03/30 09:47:01;;;;;;;14.07;2.63;;;;;;;13.73;100.00;99125.88;5009294;28;20497;-75
2024/03/30 09:49:31;;;;;;;24.80;2.92;;;;;;;13.89;99.26;99114.91;5009502;28;20477;-74
2024/03/30 09:52:00;;;;;;;18.45;2.53;;;;;;;13.98;98.74;99128.44;4987702;28;20042;-73
2024/03/30 09:54:26;;;;;;;21.98;3.03;;;;;;;14.16;96.38;99117.19;5007579;28;20034;-74
2024/03/30 09:56:52;;;;;;;19.38;3.75;;;;;;;14.17;97.04;99110.97;5023278;28;20037;-74
2024/03/30 09:59:18;;;;;;;20.98;2.33;;;;;;;14.32;95.59;99102.75;5020015;28;20086;-74
2024/03/30 10:01:43;;;;;;;20.42;2.33;;;;;;;14.46;93.13;99069.44;5009306;28;20037;-75
2024/03/30 10:04:09;;;;;;;17.67;2.67;;;;;;;14.66;92.91;99069.97;5006637;28;20026;-72
2024/03/30 10:06:51;;;;;;;29.60;3.70;;;;;;;14.98;89.04;99074.91;4989758;28;20049;-74
2024/03/30 10:09:19;;;;;;;35.37;7.07;;;;;;;15.10;85.37;99080.91;5008025;28;20033;-75
2024/03/30 10:11:46;;;;;;;25.08;2.83;;;;;;;15.10;86.46;99091.34;5007843;28;20119;-75
2024/03/30 10:14:31;;;;;;;32.40;5.07;;;;;;;15.22;78.56;99078.31;5025085;28;20030;-74
2024/03/30 10:16:58;;;;;;;51.85;4.00;;;;;;;15.17;80.87;99084.19;5022160;28;20114;-74
2024/03/30 10:19:24;;;;;;;33.50;3.65;;;;;;;15.24;76.89;99094.53;5020875;28;20038;-74
2024/03/30 10:21:50;;;;;;;43.30;3.85;;;;;;;15.30;76.50;99093.63;5020575;28;20088;-74
2024/03/30 10:24:19;;;;;;;50.53;4.82;;;;;;;15.31;73.46;99100.44;5024121;28;20045;-74
2024/03/30 10:26:44;;;;;;;48.03;3.85;;;;;;;15.44;75.55;99103.81;5004146;28;20038;-74
2024/03/30 10:29:10;;;;;;;41.92;4.70;;;;;;;15.29;75.99;99112.91;5008193;28;20056;-74
2024/03/30 10:31:40;;;;;;;43.63;3.78;;;;;;;15.32;75.25;99116.91;5020137;28;20034;-74
2024/03/30 10:34:07;;;;;;;42.25;4.22;;;;;;;15.28;75.54;99108.72;5023774;28;20038;-73
2024/03/30 10:36:32;;;;;;;37.55;3.63;;;;;;;15.28;77.01;99120.97;5021834;28;20120;-75
2024/03/30 10:38:58;;;;;;;29.83;3.45;;;;;;;15.22;77.87;99120.06;5004644;28;20084;-73
2024/03/30 10:41:27;;;;;;;38.30;5.10;;;;;;;15.09;80.10;99131.53;5033921;28;20034;-74
2024/03/30 10:43:53;;;;;;;36.10;4.15;;;;;;;15.13;78.03;99124.84;5022922;28;20393;-73
2024/03/30 10:46:18;;;;;;;38.33;5.38;;;;;;;15.14;79.24;99138.66;5006283;28;20049;-74
2024/03/30 10:48:44;;;;;;;27.50;3.85;;;;;;;15.09;80.11;99151.63;5008612;28;20030;-74
2024/03/30 10:51:10;;;;;;;45.80;4.55;;;;;;;15.12;79.55;99148.53;5020254;28;20034;-74
2024/03/30 10:53:36;;;;;;;38.00;5.40;;;;;;;15.08;79.25;99150.03;5011657;28;20052;-75
2024/03/30 10:56:01;;;;;;;22.33;2.97;;;;;;;15.02;79.39;99143.88;5020784;28;22266;-75
2024/03/30 10:58:26;;;;;;;37.33;4.95;;;;;;;15.08;78.81;99144.81;5017697;28;20596;-74
2024/03/30 11:00:54;;;;;;;59.20;5.10;;;;;;;15.07;78.48;99146.63;5007812;28;20025;-75
2024/03/30 11:03:19;;;;;;;47.95;4.82;;;;;;;15.14;74.53;99142.09;5021882;28;20427;-74
2024/03/30 11:05:45;;;;;;;57.25;4.95;;;;;;;15.09;72.90;99146.41;5004882;28;20088;-74
2024/03/30 11:08:13;;;;;;;52.25;4.95;;;;;;;15.06;69.38;99150.25;5003628;28;20033;-74
2024/03/30 11:10:39;;;;;;;47.65;4.97;;;;;;;15.31;66.75;99152.66;5023014;28;20038;-75
2024/03/30 11:13:05;;;;;;;79.18;6.60;;;;;;;15.42;65.11;99151.06;5021453;28;20505;-74
2024/03/30 11:15:40;;;;;;;66.70;6.72;;;;;;;15.38;64.25;99144.69;5020401;28;20080;-74
2024/03/30 11:18:12;;;;;;;64.03;6.47;;;;;;;15.33;64.28;99155.84;4993053;28;20038;-73
2024/03/30 11:21:02;;;;;;;90.72;8.40;;;;;;;15.53;60.91;99154.69;5033540;28;20022;-74
2024/03/30 11:23:44;;;;;;;79.65;9.00;;;;;;;15.62;60.01;99163.00;5022630;28;20046;-74